createdAt,value
2023-01-22T00:01:18.031Z,41.70
2023-01-22T00:03:47.184Z,41.13
2023-01-22T00:06:16.037Z,41.13
2023-01-22T00:08:44.590Z,41.47
2023-01-22T00:11:14.270Z,41.47
2023-01-22T00:13:42.784Z,39.37
2023-01-22T00:16:14.185Z,38.83
2023-01-22T00:18:42.953Z,39.13
2023-01-22T00:21:12.235Z,38.77
2023-01-22T00:23:40.553Z,41.23
2023-01-22T00:26:12.122Z,39.67
2023-01-22T00:28:42.634Z,39.50
2023-01-22T00:31:12.981Z,40.57
2023-01-22T00:33:42.004Z,38.63
2023-01-22T00:36:13.390Z,40.07
2023-01-22T00:38:41.705Z,36.83
2023-01-22T00:41:10.607Z,38.77
2023-01-22T00:43:40.738Z,39.63
2023-01-22T00:46:12.655Z,38.10
2023-01-22T00:48:41.295Z,39.50
2023-01-22T00:51:10.086Z,37.30
2023-01-22T00:53:38.888Z,37.77
2023-01-22T00:56:08.239Z,37.47
2023-01-22T00:58:36.453Z,37.93
2023-01-22T01:01:05.272Z,38.57
2023-01-22T01:03:36.821Z,37.50
2023-01-22T01:06:07.721Z,37.77
2023-01-22T01:08:37.137Z,36.30
2023-01-22T01:11:07.472Z,35.67
2023-01-22T01:13:38.631Z,35.40
2023-01-22T01:16:09.820Z,35.47
2023-01-22T01:18:39.382Z,35.37
2023-01-22T01:21:07.731Z,35.63
2023-01-22T01:23:36.775Z,37.27
2023-01-22T01:26:07.328Z,38.30
2023-01-22T01:28:37.544Z,34.97
2023-01-22T01:31:07.095Z,35.20
2023-01-22T01:33:35.366Z,34.43
2023-01-22T01:36:07.479Z,36.30
2023-01-22T01:38:35.637Z,34.37
2023-01-22T01:41:03.940Z,36.17
2023-01-22T01:43:32.582Z,35.30
2023-01-22T01:46:04.697Z,35.70
2023-01-22T01:48:36.816Z,33.20
2023-01-22T01:51:11.243Z,31.27
2023-01-22T01:53:40.956Z,33.33
2023-01-22T01:56:12.101Z,31.70
2023-01-22T01:58:43.977Z,32.70
2023-01-22T02:01:15.068Z,31.83
2023-01-22T02:03:43.456Z,33.07
2023-01-22T02:06:15.426Z,34.03
2023-01-22T02:08:48.362Z,32.90
2023-01-22T02:11:17.295Z,34.23
2023-01-22T02:13:51.493Z,33.30
2023-01-22T02:16:19.986Z,33.73
2023-01-22T02:18:48.523Z,32.47
2023-01-22T02:21:32.318Z,32.93
2023-01-22T02:24:00.563Z,33.00
2023-01-22T02:26:28.855Z,33.57
2023-01-22T02:28:56.955Z,32.37
2023-01-22T02:31:25.115Z,33.63
2023-01-22T02:33:53.209Z,33.03
2023-01-22T02:36:21.849Z,34.37
2023-01-22T02:38:51.457Z,32.50
2023-01-22T02:41:19.630Z,34.80
2023-01-22T02:43:47.892Z,35.20
2023-01-22T02:46:16.121Z,34.97
2023-01-22T02:48:44.288Z,34.77
2023-01-22T02:51:12.600Z,37.07
2023-01-22T02:53:43.132Z,37.13
2023-01-22T02:56:13.340Z,36.43
2023-01-22T02:58:41.655Z,36.47
2023-01-22T03:01:19.300Z,35.80
2023-01-22T03:03:47.828Z,36.77
2023-01-22T03:06:16.396Z,34.90
2023-01-22T03:08:44.742Z,36.53
2023-01-22T03:11:14.312Z,35.33
2023-01-22T03:14:00.311Z,34.33
2023-01-22T03:16:45.781Z,35.43
2023-01-22T03:19:31.702Z,34.07
2023-01-22T03:21:59.717Z,34.67
2023-01-22T03:24:27.962Z,35.17
2023-01-22T03:26:57.458Z,35.93
2023-01-22T03:29:25.445Z,37.47
2023-01-22T03:31:53.541Z,35.83
2023-01-22T03:34:22.806Z,33.33
2023-01-22T03:36:50.971Z,35.13
2023-01-22T03:39:19.076Z,36.70
2023-01-22T03:41:47.123Z,35.73
2023-01-22T03:44:16.728Z,36.23
2023-01-22T03:46:44.810Z,35.50
2023-01-22T03:49:15.216Z,35.23
2023-01-22T03:51:43.831Z,37.73
2023-01-22T03:54:12.499Z,42.20
2023-01-22T03:56:41.904Z,42.63
2023-01-22T03:59:10.962Z,43.50
2023-01-22T04:01:40.736Z,39.53
2023-01-22T04:04:08.796Z,37.10
2023-01-22T04:06:37.086Z,34.70
2023-01-22T04:09:05.238Z,36.63
2023-01-22T04:11:33.392Z,35.50
2023-01-22T04:14:01.548Z,34.53
2023-01-22T04:16:29.792Z,35.23
2023-01-22T04:18:59.380Z,36.90
2023-01-22T04:21:27.449Z,35.60
2023-01-22T04:23:56.810Z,36.03
2023-01-22T04:26:25.075Z,35.90
2023-01-22T04:28:53.157Z,37.13
2023-01-22T04:31:21.386Z,34.90
2023-01-22T04:33:49.678Z,34.50
2023-01-22T04:36:19.299Z,36.27
2023-01-22T04:38:47.426Z,34.37
2023-01-22T04:41:15.634Z,36.33
2023-01-22T04:43:43.678Z,35.27
2023-01-22T04:46:11.871Z,37.87
2023-01-22T04:48:40.042Z,36.10
2023-01-22T04:51:08.240Z,36.57
2023-01-22T04:53:37.884Z,35.87
2023-01-22T04:56:06.562Z,33.47
2023-01-22T04:58:34.698Z,33.83
2023-01-22T05:01:02.992Z,33.63
2023-01-22T05:03:31.178Z,33.67
2023-01-22T05:06:03.540Z,31.07
2023-01-22T05:08:31.625Z,33.53
2023-01-22T05:11:03.495Z,31.03
2023-01-22T05:13:31.899Z,32.90
2023-01-22T05:15:59.951Z,32.10
2023-01-22T05:18:28.353Z,32.67
2023-01-22T05:20:56.508Z,35.37
2023-01-22T05:23:24.923Z,30.87
2023-01-22T05:25:53.042Z,30.33
2023-01-22T05:28:22.550Z,30.73
2023-01-22T05:30:50.778Z,32.20
2023-01-22T05:33:19.011Z,29.53
2023-01-22T05:35:47.112Z,31.43
2023-01-22T05:38:15.225Z,32.97
2023-01-22T05:40:43.339Z,31.10
2023-01-22T05:43:11.306Z,31.63
2023-01-22T05:45:40.982Z,32.73
2023-01-22T05:48:09.231Z,30.87
2023-01-22T05:50:37.563Z,30.50
2023-01-22T05:53:05.787Z,31.03
2023-01-22T05:55:34.273Z,31.03
2023-01-22T05:58:03.833Z,29.57
2023-01-22T06:00:33.478Z,31.23
2023-01-22T06:03:03.262Z,31.50
2023-01-22T06:05:31.455Z,32.10
2023-01-22T06:07:59.630Z,33.13
2023-01-22T06:10:27.834Z,33.27
2023-01-22T06:12:55.925Z,31.10
2023-01-22T06:15:23.969Z,34.20
2023-01-22T06:17:52.046Z,36.63
2023-01-22T06:20:21.610Z,34.67
2023-01-22T06:22:52.293Z,36.27
2023-01-22T06:25:20.355Z,35.73
2023-01-22T06:27:48.523Z,34.33
2023-01-22T06:30:17.669Z,36.00
2023-01-22T06:32:45.998Z,32.17
2023-01-22T06:35:14.300Z,31.57
2023-01-22T06:37:43.843Z,46.90
2023-01-22T06:40:12.931Z,36.50
2023-01-22T06:42:41.879Z,30.37
2023-01-22T06:45:11.219Z,30.83
2023-01-22T06:47:39.406Z,30.27
2023-01-22T06:50:07.973Z,30.97
2023-01-22T06:52:36.164Z,28.73
2023-01-22T06:55:06.818Z,29.83
2023-01-22T06:57:34.873Z,27.90
2023-01-22T07:00:03.299Z,27.30
2023-01-22T07:02:31.419Z,26.43
2023-01-22T07:04:59.608Z,25.30
2023-01-22T07:07:27.731Z,27.47
2023-01-22T07:09:55.906Z,25.67
2023-01-22T07:12:25.368Z,26.80
2023-01-22T07:14:53.377Z,27.13
2023-01-22T07:17:21.525Z,28.00
2023-01-22T07:19:49.656Z,30.07
2023-01-22T07:22:17.744Z,27.13
2023-01-22T07:24:45.943Z,27.83
2023-01-22T07:27:14.052Z,28.80
2023-01-22T07:29:43.720Z,26.73
2023-01-22T07:32:12.155Z,26.33
2023-01-22T07:34:40.600Z,26.93
2023-01-22T07:37:09.120Z,27.43
2023-01-22T07:39:37.259Z,25.63
2023-01-22T07:42:05.402Z,27.97
2023-01-22T07:44:33.563Z,27.60
2023-01-22T07:47:02.953Z,28.77
2023-01-22T07:49:31.080Z,27.47
2023-01-22T07:51:59.171Z,27.93
2023-01-22T07:54:27.284Z,27.87
2023-01-22T07:56:55.882Z,29.00
2023-01-22T07:59:24.155Z,28.17
2023-01-22T08:01:52.440Z,28.77
2023-01-22T08:04:22.165Z,29.30
2023-01-22T08:06:50.248Z,29.73
2023-01-22T08:09:24.854Z,28.30
2023-01-22T08:11:53.545Z,29.43
2023-01-22T08:14:21.596Z,29.27
2023-01-22T08:16:49.742Z,30.23
2023-01-22T08:19:17.790Z,28.20
2023-01-22T08:21:47.331Z,28.80
2023-01-22T08:24:15.509Z,29.27
2023-01-22T08:26:45.592Z,29.00
2023-01-22T08:29:13.705Z,27.70
2023-01-22T08:31:42.148Z,29.20
2023-01-22T08:34:10.881Z,29.87
2023-01-22T08:36:39.804Z,31.63
2023-01-22T08:39:10.759Z,29.80
2023-01-22T08:41:39.034Z,32.17
2023-01-22T08:44:07.627Z,30.97
2023-01-22T08:46:36.037Z,30.47
2023-01-22T08:49:04.456Z,31.17
2023-01-22T08:51:33.194Z,32.57
2023-01-22T08:54:01.342Z,31.17
2023-01-22T08:56:30.842Z,32.03
2023-01-22T08:59:06.498Z,30.13
2023-01-22T09:01:35.943Z,33.67
2023-01-22T09:04:06.689Z,30.50
2023-01-22T09:06:34.741Z,31.47
2023-01-22T09:09:02.877Z,30.53
2023-01-22T09:11:32.807Z,27.87
2023-01-22T09:14:01.197Z,29.93
2023-01-22T09:16:29.299Z,29.53
2023-01-22T09:18:57.447Z,32.67
2023-01-22T09:21:25.607Z,34.67
2023-01-22T09:23:53.786Z,33.03
2023-01-22T09:26:22.020Z,35.47
2023-01-22T09:28:51.796Z,32.93
2023-01-22T09:31:20.270Z,36.13
2023-01-22T09:33:48.390Z,33.37
2023-01-22T09:36:17.724Z,34.70
2023-01-22T09:38:46.289Z,34.33
2023-01-22T09:41:21.947Z,37.23
2023-01-22T09:43:55.232Z,34.50
2023-01-22T09:46:28.734Z,35.57
2023-01-22T09:49:04.116Z,33.30
2023-01-22T09:51:32.260Z,34.70
2023-01-22T09:54:03.317Z,33.03
2023-01-22T09:56:38.024Z,32.03
2023-01-22T09:59:09.000Z,30.30
2023-01-22T10:01:38.447Z,32.87
2023-01-22T10:04:15.585Z,24.47
2023-01-22T10:06:46.224Z,27.50
2023-01-22T10:09:18.372Z,26.20
2023-01-22T10:11:50.814Z,27.90
2023-01-22T10:14:23.764Z,27.33
2023-01-22T10:16:52.580Z,28.87
2023-01-22T10:19:26.157Z,26.80
2023-01-22T10:21:58.694Z,25.20
2023-01-22T10:24:26.877Z,27.03
2023-01-22T10:26:58.968Z,26.43
2023-01-22T10:29:33.097Z,27.70
2023-01-22T10:32:02.733Z,28.20
2023-01-22T10:34:34.371Z,26.80
2023-01-22T10:37:04.691Z,23.77
2023-01-22T10:39:42.208Z,25.80
2023-01-22T10:42:17.285Z,27.30
2023-01-22T10:44:47.259Z,24.37
2023-01-22T10:47:21.025Z,22.63
2023-01-22T10:49:50.957Z,23.73
2023-01-22T10:52:24.875Z,24.97
2023-01-22T10:54:56.527Z,24.47
2023-01-22T10:57:33.600Z,22.37
2023-01-22T11:00:21.314Z,24.67
2023-01-22T11:02:51.512Z,41.90
2023-01-22T11:05:21.136Z,27.33
2023-01-22T11:07:52.432Z,26.87
2023-01-22T11:10:24.643Z,24.83
2023-01-22T11:12:58.732Z,26.23
2023-01-22T11:15:37.091Z,24.67
2023-01-22T11:18:08.484Z,21.00
2023-01-22T11:20:46.685Z,23.10
2023-01-22T11:23:21.948Z,20.63
2023-01-22T11:26:04.568Z,16.90
2023-01-22T11:28:43.564Z,16.13
2023-01-22T11:31:52.511Z,17.33
2023-01-22T11:34:37.391Z,16.60
2023-01-22T11:37:12.897Z,17.37
2023-01-22T11:40:06.219Z,14.10
2023-01-22T11:42:49.575Z,13.10
2023-01-22T11:45:50.652Z,13.80
2023-01-22T11:48:35.113Z,13.43
2023-01-22T11:51:12.379Z,12.17
2023-01-22T11:53:57.500Z,12.30
2023-01-22T11:56:43.897Z,10.53
2023-01-22T11:59:19.803Z,12.13
2023-01-22T12:02:03.087Z,11.90
2023-01-22T12:05:14.445Z,13.10
2023-01-22T12:08:01.481Z,11.57
2023-01-22T12:10:55.874Z,13.73
2023-01-22T12:13:47.265Z,10.13
2023-01-22T12:16:23.090Z,9.67
2023-01-22T12:19:25.683Z,9.47
2023-01-22T12:22:02.499Z,11.27
2023-01-22T12:24:36.736Z,11.37
2023-01-22T12:27:10.734Z,11.40
2023-01-22T12:29:44.555Z,15.30
2023-01-22T12:32:15.535Z,14.20
2023-01-22T12:34:49.771Z,13.03
2023-01-22T12:37:37.362Z,12.20
2023-01-22T12:40:26.681Z,13.13
2023-01-22T12:43:02.136Z,12.87
2023-01-22T12:45:41.652Z,13.83
2023-01-22T12:48:20.704Z,12.80
2023-01-22T12:50:54.738Z,14.30
2023-01-22T12:53:30.289Z,17.17
2023-01-22T12:56:02.251Z,15.97
2023-01-22T12:58:32.442Z,14.20
2023-01-22T13:01:03.260Z,12.97
2023-01-22T13:03:32.969Z,12.30
2023-01-22T13:06:03.267Z,12.97
2023-01-22T13:08:42.279Z,13.83
2023-01-22T13:11:14.352Z,12.80
2023-01-22T13:13:48.212Z,12.20
2023-01-22T13:16:22.389Z,13.00
2023-01-22T13:18:52.438Z,10.70
2023-01-22T13:21:28.411Z,11.73
2023-01-22T13:24:03.293Z,11.17
2023-01-22T13:26:34.454Z,14.17
2023-01-22T13:29:06.426Z,15.57
2023-01-22T13:31:34.924Z,14.50
2023-01-22T13:34:09.133Z,13.80
2023-01-22T13:36:39.947Z,14.00
2023-01-22T13:39:20.493Z,15.90
2023-01-22T13:41:52.435Z,18.80
2023-01-22T13:44:24.063Z,16.93
2023-01-22T13:46:53.125Z,17.07
2023-01-22T13:49:25.297Z,17.43
2023-01-22T13:51:54.529Z,16.93
2023-01-22T13:54:29.449Z,16.43
2023-01-22T13:56:57.687Z,26.77
2023-01-22T13:59:27.816Z,27.83
2023-01-22T14:01:55.952Z,18.83
2023-01-22T14:04:38.962Z,17.30
2023-01-22T14:07:07.728Z,15.03
2023-01-22T14:09:40.555Z,15.37
2023-01-22T14:12:16.701Z,15.30
2023-01-22T14:14:45.646Z,14.03
2023-01-22T14:17:25.036Z,19.47
2023-01-22T14:19:53.425Z,18.07
2023-01-22T14:22:22.483Z,36.53
2023-01-22T14:24:52.792Z,16.90
2023-01-22T14:27:22.393Z,34.67
2023-01-22T14:29:50.500Z,17.97
2023-01-22T14:32:18.615Z,18.50
2023-01-22T14:34:46.945Z,18.17
2023-01-22T14:37:17.039Z,17.77
2023-01-22T14:39:45.156Z,17.67
2023-01-22T14:42:14.793Z,21.13
2023-01-22T14:44:43.052Z,22.17
2023-01-22T14:47:11.336Z,18.67
2023-01-22T14:49:41.070Z,11.33
2023-01-22T14:52:09.334Z,11.33
2023-01-22T14:54:37.556Z,15.60
2023-01-22T14:57:05.978Z,16.47
2023-01-22T14:59:35.600Z,19.47
2023-01-22T15:02:03.792Z,13.90
2023-01-22T15:04:31.884Z,16.43
2023-01-22T15:07:00.311Z,13.87
2023-01-22T15:09:28.572Z,15.40
2023-01-22T15:11:56.766Z,14.20
2023-01-22T15:14:25.361Z,15.67
2023-01-22T15:16:54.847Z,12.93
2023-01-22T15:19:22.993Z,12.33
2023-01-22T15:21:51.130Z,17.80
2023-01-22T15:24:19.302Z,12.47
2023-01-22T15:26:47.462Z,13.77
2023-01-22T15:29:15.948Z,13.00
2023-01-22T15:31:44.132Z,9.70
2023-01-22T15:34:13.888Z,9.43
2023-01-22T15:36:43.419Z,10.83
2023-01-22T15:39:11.554Z,6.27
2023-01-22T15:41:39.939Z,7.17
2023-01-22T15:44:08.537Z,4.60
2023-01-22T15:46:38.985Z,6.73
2023-01-22T15:49:09.022Z,6.47
2023-01-22T15:51:38.622Z,7.07
2023-01-22T15:54:08.116Z,5.77
2023-01-22T15:56:38.381Z,5.33
2023-01-22T15:59:06.946Z,5.00
2023-01-22T16:01:35.220Z,4.13
2023-01-22T16:04:04.149Z,5.00
2023-01-22T16:06:34.746Z,4.33
2023-01-22T16:09:06.371Z,6.47
2023-01-22T16:11:35.779Z,5.70
2023-01-22T16:14:03.997Z,6.67
2023-01-22T16:16:36.509Z,6.57
2023-01-22T16:19:06.928Z,7.47
2023-01-22T16:21:35.594Z,8.90
2023-01-22T16:24:06.384Z,8.20
2023-01-22T16:26:36.226Z,8.03
2023-01-22T16:29:06.694Z,7.20
2023-01-22T16:31:36.151Z,8.07
2023-01-22T16:34:10.096Z,7.53
2023-01-22T16:36:38.788Z,11.63
2023-01-22T16:39:09.282Z,17.80
2023-01-22T16:41:38.403Z,11.23
2023-01-22T16:44:09.580Z,11.50
2023-01-22T16:46:39.639Z,12.47
2023-01-22T16:49:11.564Z,12.63
2023-01-22T16:51:41.876Z,11.50
2023-01-22T16:54:17.481Z,12.30
2023-01-22T16:56:45.790Z,11.70
2023-01-22T16:59:14.037Z,10.20
2023-01-22T17:01:42.983Z,10.43
2023-01-22T17:04:11.241Z,11.07
2023-01-22T17:06:42.008Z,10.13
2023-01-22T17:09:15.540Z,12.13
2023-01-22T17:11:47.232Z,11.40
2023-01-22T17:14:18.510Z,13.00
2023-01-22T17:16:47.190Z,16.73
2023-01-22T17:19:15.724Z,14.07
2023-01-22T17:21:44.010Z,12.77
2023-01-22T17:24:14.576Z,12.07
2023-01-22T17:26:43.336Z,11.27
2023-01-22T17:29:12.020Z,11.47
2023-01-22T17:31:40.821Z,12.60
2023-01-22T17:34:11.134Z,27.60
2023-01-22T17:36:40.096Z,13.57
2023-01-22T17:39:08.624Z,10.40
2023-01-22T17:41:38.154Z,10.53
2023-01-22T17:44:07.107Z,9.93
2023-01-22T17:46:35.818Z,12.77
2023-01-22T17:49:04.771Z,11.27
2023-01-22T17:51:34.861Z,11.27
2023-01-22T17:54:06.291Z,12.57
2023-01-22T17:56:36.624Z,11.73
2023-01-22T17:59:08.116Z,11.33
2023-01-22T18:01:39.006Z,13.87
2023-01-22T18:04:10.199Z,18.80
2023-01-22T18:06:40.625Z,14.67
2023-01-22T18:09:11.894Z,13.60
2023-01-22T18:11:43.180Z,14.03
2023-01-22T18:14:18.272Z,16.40
2023-01-22T18:16:48.349Z,16.17
2023-01-22T18:19:19.892Z,18.50
2023-01-22T18:21:51.581Z,17.53
2023-01-22T18:24:25.522Z,14.57
2023-01-22T18:27:01.544Z,16.37
2023-01-22T18:29:33.859Z,14.80
2023-01-22T18:32:09.081Z,14.47
2023-01-22T18:34:40.234Z,14.30
2023-01-22T18:37:11.883Z,13.77
2023-01-22T18:39:43.313Z,15.60
2023-01-22T18:42:13.407Z,17.23
2023-01-22T18:44:46.585Z,14.83
2023-01-22T18:47:20.990Z,16.13
2023-01-22T18:49:53.241Z,16.73
2023-01-22T18:52:24.336Z,16.67
2023-01-22T18:54:55.165Z,15.80
2023-01-22T18:57:46.190Z,19.70
2023-01-22T19:00:16.441Z,15.87
2023-01-22T19:02:44.631Z,16.47
2023-01-22T19:05:12.805Z,16.30
2023-01-22T19:07:40.941Z,16.20
2023-01-22T19:10:09.752Z,18.10
2023-01-22T19:12:37.987Z,19.63
2023-01-22T19:15:07.110Z,18.50
2023-01-22T19:17:36.772Z,19.40
2023-01-22T19:20:08.608Z,18.93
2023-01-22T19:22:36.893Z,19.50
2023-01-22T19:25:06.916Z,18.43
2023-01-22T19:27:34.933Z,17.83
2023-01-22T19:30:03.391Z,16.67
2023-01-22T19:32:35.118Z,17.83
2023-01-22T19:35:06.118Z,16.10
2023-01-22T19:37:34.799Z,16.13
2023-01-22T19:40:03.152Z,17.27
2023-01-22T19:42:31.412Z,19.70
2023-01-22T19:44:59.649Z,19.13
2023-01-22T19:47:28.462Z,29.83
2023-01-22T19:49:56.649Z,19.23
2023-01-22T19:52:28.091Z,21.67
2023-01-22T19:54:56.152Z,21.03
2023-01-22T19:57:24.894Z,23.30
2023-01-22T19:59:57.300Z,21.43
2023-01-22T20:02:25.512Z,22.20
2023-01-22T20:04:54.196Z,21.93
2023-01-22T20:07:22.795Z,23.03
2023-01-22T20:09:54.338Z,32.43
2023-01-22T20:12:23.288Z,24.97
2023-01-22T20:14:51.417Z,24.10
2023-01-22T20:17:19.477Z,22.63
2023-01-22T20:19:47.599Z,23.17
2023-01-22T20:22:15.990Z,23.87
2023-01-22T20:24:44.240Z,23.03
2023-01-22T20:27:13.743Z,27.10
2023-01-22T20:29:42.047Z,25.67
2023-01-22T20:32:10.151Z,24.40
2023-01-22T20:34:38.251Z,26.37
2023-01-22T20:37:06.476Z,27.23
2023-01-22T20:39:34.737Z,28.63
2023-01-22T20:42:02.941Z,28.17
2023-01-22T20:44:35.432Z,28.07
2023-01-22T20:47:03.623Z,29.00
2023-01-22T20:49:33.396Z,30.00
2023-01-22T20:52:01.888Z,28.63
2023-01-22T20:54:30.484Z,30.23
2023-01-22T20:56:58.739Z,29.20
2023-01-22T20:59:28.549Z,30.13
2023-01-22T21:01:58.978Z,29.67
2023-01-22T21:04:27.159Z,29.77
2023-01-22T21:06:56.657Z,30.80
2023-01-22T21:09:24.837Z,31.17
2023-01-22T21:11:52.898Z,32.07
2023-01-22T21:14:21.696Z,31.80
2023-01-22T21:16:49.884Z,35.20
2023-01-22T21:19:23.753Z,33.43
2023-01-22T21:21:52.579Z,32.47
2023-01-22T21:24:21.361Z,35.37
2023-01-22T21:26:49.497Z,37.10
2023-01-22T21:29:19.432Z,32.30
2023-01-22T21:31:52.300Z,34.27
2023-01-22T21:34:24.625Z,32.87
2023-01-22T21:36:54.779Z,33.43
2023-01-22T21:39:25.163Z,35.53
2023-01-22T21:42:13.731Z,36.57
2023-01-22T21:44:59.269Z,40.07
2023-01-22T21:47:27.581Z,43.87
2023-01-22T21:49:57.173Z,38.13
2023-01-22T21:52:26.397Z,40.90
2023-01-22T21:54:54.524Z,34.93
2023-01-22T21:57:22.595Z,33.73
2023-01-22T21:59:50.801Z,33.40
2023-01-22T22:02:20.604Z,32.83
2023-01-22T22:04:48.946Z,32.67
2023-01-22T22:07:18.962Z,33.67
2023-01-22T22:09:47.158Z,33.60
2023-01-22T22:12:15.232Z,32.43
2023-01-22T22:14:43.528Z,31.83
2023-01-22T22:17:11.901Z,30.47
2023-01-22T22:19:40.157Z,28.83
2023-01-22T22:22:08.418Z,25.03
2023-01-22T22:24:38.027Z,24.37
2023-01-22T22:27:06.055Z,25.97
2023-01-22T22:29:34.153Z,26.03
2023-01-22T22:32:02.262Z,25.47
2023-01-22T22:34:30.415Z,24.60
2023-01-22T22:36:58.460Z,25.97
2023-01-22T22:39:26.582Z,25.03
2023-01-22T22:41:56.013Z,24.87
2023-01-22T22:44:24.089Z,26.27
2023-01-22T22:46:52.189Z,27.07
2023-01-22T22:49:20.408Z,25.20
2023-01-22T22:51:48.517Z,25.30
2023-01-22T22:54:17.972Z,23.77
2023-01-22T22:56:46.866Z,24.20
2023-01-22T22:59:18.732Z,22.97
2023-01-22T23:01:46.783Z,24.43
2023-01-22T23:04:14.904Z,25.07
2023-01-22T23:06:45.318Z,24.47
2023-01-22T23:09:15.343Z,25.73
2023-01-22T23:11:43.905Z,26.33
2023-01-22T23:14:19.672Z,26.57
2023-01-22T23:16:50.098Z,27.80
2023-01-22T23:19:19.830Z,26.20
2023-01-22T23:21:50.776Z,25.00
2023-01-22T23:24:19.026Z,26.10
2023-01-22T23:26:47.792Z,25.37
2023-01-22T23:29:18.284Z,25.53
2023-01-22T23:31:48.345Z,25.70
2023-01-22T23:34:19.276Z,24.47
2023-01-22T23:36:48.634Z,24.60
2023-01-22T23:39:18.847Z,25.90
2023-01-22T23:41:47.140Z,25.70
2023-01-22T23:44:15.891Z,25.00
2023-01-22T23:46:45.220Z,25.00
2023-01-22T23:49:14.917Z,26.13
2023-01-22T23:51:44.789Z,26.53
2023-01-22T23:54:13.045Z,26.23
2023-01-22T23:56:41.131Z,24.53
2023-01-22T23:59:10.389Z,23.90
